Time;durP1;ratioP1;P1;durP2;ratioP2;P2;SDS_P1;SDS_P2;PMS_P1;PMS_P2;Temp;Humidity;BMP_temperature;BMP_pressure;BME280_temperature;BME280_humidity;BME280_pressure;Samples;Min_cycle;Max_cycle;Signal;HPM_P1;HPM_P2
2022/06/07 00:00:13;;;;;;;2.45;2.20;;;21.60;57.30;;;;;;5053951;28;20642;-64
2022/06/07 00:02:39;;;;;;;2.67;2.40;;;21.60;57.20;;;;;;5055757;28;20058;-65
2022/06/07 00:05:05;;;;;;;2.85;2.30;;;21.70;57.30;;;;;;5054494;28;20048;-63
2022/06/07 00:07:31;;;;;;;3.38;2.30;;;21.70;57.30;;;;;;5052479;28;20123;-64
2022/06/07 00:09:57;;;;;;;2.45;2.25;;;21.70;57.30;;;;;;5055761;28;20453;-65
2022/06/07 00:12:23;;;;;;;2.67;1.98;;;21.70;57.20;;;;;;5055379;28;20392;-65
2022/06/07 00:14:49;;;;;;;2.65;2.20;;;21.70;57.20;;;;;;5054471;28;20114;-64
2022/06/07 00:17:15;;;;;;;2.40;2.20;;;21.70;57.10;;;;;;5053263;28;20036;-64
2022/06/07 00:19:41;;;;;;;2.47;2.10;;;21.70;57.20;;;;;;5053473;28;20079;-64
2022/06/07 00:22:07;;;;;;;2.85;2.30;;;21.60;57.10;;;;;;5045983;28;20051;-64
2022/06/07 00:24:33;;;;;;;1.75;1.65;;;21.60;57.10;;;;;;5055085;28;20226;-64
2022/06/07 00:26:59;;;;;;;3.35;2.10;;;21.60;57.10;;;;;;5055766;28;20048;-64
2022/06/07 00:29:26;;;;;;;3.75;2.10;;;21.60;57.10;;;;;;5053441;28;20114;-62
2022/06/07 00:31:52;;;;;;;2.10;1.92;;;21.60;57.10;;;;;;5056429;28;20113;-63
2022/06/07 00:34:17;;;;;;;2.10;1.90;;;21.60;57.10;;;;;;5053222;28;20049;-65
2022/06/07 00:36:44;;;;;;;2.40;2.05;;;21.70;57.10;;;;;;5052920;28;20929;-63
2022/06/07 00:39:10;;;;;;;2.42;2.00;;;21.60;57.10;;;;;;5038437;28;20041;-64
2022/06/07 00:41:37;;;;;;;2.00;1.80;;;21.60;57.10;;;;;;5055057;28;20072;-64
2022/06/07 00:44:21;;;;;;;2.25;1.77;;;21.60;57.10;;;;;;5055978;28;20500;-64
2022/06/07 00:46:48;;;;;;;3.55;2.28;;;21.60;57.00;;;;;;5054865;28;20135;-64
2022/06/07 00:49:18;;;;;;;2.13;1.73;;;21.60;57.10;;;;;;5054826;28;20041;-64
2022/06/07 00:51:45;;;;;;;3.15;2.65;;;21.60;57.10;;;;;;5055533;28;20475;-63
2022/06/07 00:54:17;;;;;;;1.77;1.67;;;21.60;57.10;;;;;;5054572;28;20496;-64
2022/06/07 00:56:43;;;;;;;2.15;1.95;;;21.60;57.10;;;;;;5047308;28;20036;-64
2022/06/07 00:59:08;;;;;;;2.10;1.90;;;21.60;57.10;;;;;;5055686;28;20091;-65
2022/06/07 01:01:34;;;;;;;2.88;2.05;;;21.60;57.10;;;;;;5049021;28;20090;-62
2022/06/07 01:04:00;;;;;;;2.00;1.80;;;21.60;57.10;;;;;;5025592;28;20033;-64
2022/06/07 01:11:54;;;;;;;2.20;1.73;;;21.60;57.10;;;;;;5054647;28;20493;-64
2022/06/07 01:14:19;;;;;;;2.42;1.98;;;21.60;57.10;;;;;;5054375;28;20039;-64
2022/06/07 01:16:46;;;;;;;2.70;1.95;;;21.60;57.10;;;;;;5054057;28;20040;-64
2022/06/07 01:19:11;;;;;;;1.67;1.58;;;21.60;57.10;;;;;;5053956;28;20045;-64
2022/06/07 01:21:40;;;;;;;2.35;1.83;;;21.60;57.00;;;;;;5035561;28;20594;-64
2022/06/07 01:24:06;;;;;;;1.55;1.45;;;21.60;57.10;;;;;;5054872;28;20033;-64
2022/06/07 01:26:32;;;;;;;1.60;1.50;;;21.60;57.10;;;;;;5054014;28;20571;-65
2022/06/07 01:28:57;;;;;;;2.42;2.00;;;21.60;57.00;;;;;;5052803;28;20037;-64
2022/06/07 01:31:23;;;;;;;2.97;1.80;;;21.60;57.00;;;;;;5055433;28;20064;-64
2022/06/07 01:33:49;;;;;;;1.88;1.73;;;21.60;57.00;;;;;;5054226;28;20049;-64
2022/06/07 01:36:16;;;;;;;1.80;1.67;;;21.60;57.00;;;;;;5052568;28;20142;-62
2022/06/07 01:38:44;;;;;;;1.80;1.70;;;21.60;57.00;;;;;;5053347;28;20037;-64
2022/06/07 01:43:56;;;;;;;1.80;1.70;;;21.60;57.00;;;;;;5054420;28;20056;-64
2022/06/07 01:46:22;;;;;;;1.85;1.75;;;21.50;56.90;;;;;;5052477;28;20076;-64
2022/06/07 01:48:48;;;;;;;2.03;1.90;;;21.50;56.90;;;;;;5053450;28;20079;-64
2022/06/07 01:51:16;;;;;;;1.80;1.70;;;21.60;57.00;;;;;;5054165;28;20105;-63
2022/06/07 01:53:42;;;;;;;2.30;1.70;;;21.50;56.90;;;;;;5054433;28;20040;-64
2022/06/07 01:56:11;;;;;;;2.75;1.80;;;21.50;56.90;;;;;;5050326;28;20041;-64
2022/06/07 01:58:38;;;;;;;2.08;1.85;;;21.50;56.90;;;;;;5053305;28;20395;-64
2022/06/07 02:01:05;;;;;;;2.55;2.03;;;21.50;56.90;;;;;;5034655;28;20200;-64
2022/06/07 02:03:31;;;;;;;1.70;1.60;;;21.50;56.90;;;;;;5053730;28;20314;-64
2022/06/07 02:05:59;;;;;;;1.83;1.67;;;21.50;56.90;;;;;;5052892;28;20079;-64
2022/06/07 02:08:26;;;;;;;2.25;1.80;;;21.50;56.80;;;;;;5054583;28;20159;-64
2022/06/07 02:10:53;;;;;;;2.00;1.80;;;21.50;56.80;;;;;;5053287;28;20103;-62
2022/06/07 02:13:19;;;;;;;2.88;1.50;;;21.50;56.80;;;;;;5054535;28;20052;-65
2022/06/07 02:15:49;;;;;;;1.80;1.70;;;21.50;56.80;;;;;;5055889;28;20056;-64
2022/06/07 02:18:15;;;;;;;2.03;1.83;;;21.50;56.80;;;;;;5054375;28;20361;-62
2022/06/07 02:20:42;;;;;;;2.00;1.85;;;21.50;56.80;;;;;;5053856;28;20124;-64
2022/06/07 02:23:08;;;;;;;1.75;1.63;;;21.50;57.50;;;;;;5055193;28;20032;-64
2022/06/07 02:25:43;;;;;;;1.50;1.40;;;21.50;56.80;;;;;;5054805;28;20044;-65
2022/06/07 02:28:11;;;;;;;2.03;1.63;;;21.50;56.80;;;;;;5052178;28;20041;-64
2022/06/07 02:30:38;;;;;;;1.60;1.50;;;21.50;56.80;;;;;;5053327;28;20129;-64
2022/06/07 02:33:04;;;;;;;2.72;1.70;;;21.50;56.80;;;;;;5053707;28;20056;-64
2022/06/07 02:35:30;;;;;;;1.80;1.70;;;21.50;56.80;;;;;;5051525;28;21119;-64
2022/06/07 02:37:56;;;;;;;1.70;1.60;;;21.50;56.80;;;;;;5051944;28;20896;-64
2022/06/07 02:40:21;;;;;;;1.92;1.75;;;21.50;56.70;;;;;;5052985;28;20044;-64
2022/06/07 02:42:47;;;;;;;1.67;1.50;;;21.50;56.70;;;;;;5051925;28;20048;-65
2022/06/07 02:45:13;;;;;;;1.98;1.63;;;21.50;56.80;;;;;;5054190;28;20064;-63
2022/06/07 02:47:39;;;;;;;1.70;1.60;;;21.50;56.70;;;;;;5053588;28;20064;-64
2022/06/07 02:50:05;;;;;;;2.00;1.90;;;21.50;56.80;;;;;;5054079;28;20545;-65
2022/06/07 02:52:31;;;;;;;1.60;1.50;;;21.50;56.80;;;;;;5056833;28;20339;-64
2022/06/07 02:54:56;;;;;;;1.60;1.50;;;21.50;57.50;;;;;;5056947;28;20040;-64
2022/06/07 02:57:22;;;;;;;1.80;1.65;;;21.50;56.70;;;;;;5055584;28;20051;-64
2022/06/07 02:59:48;;;;;;;1.85;1.60;;;21.50;56.70;;;;;;5058471;28;20048;-65
2022/06/07 03:02:14;;;;;;;2.40;1.70;;;21.50;56.70;;;;;;5040269;28;20159;-64
2022/06/07 03:04:40;;;;;;;1.85;1.73;;;21.50;56.70;;;;;;5056173;28;20798;-65
2022/06/07 03:07:07;;;;;;;2.65;2.30;;;21.50;56.70;;;;;;5055755;28;20041;-63
2022/06/07 03:09:33;;;;;;;2.40;1.60;;;21.50;56.80;;;;;;5054607;28;20041;-64
2022/06/07 03:11:59;;;;;;;2.58;1.73;;;21.50;56.70;;;;;;5039178;28;20047;-64
2022/06/07 03:14:24;;;;;;;1.77;1.65;;;21.50;56.70;;;;;;5055727;28;20040;-63
2022/06/07 03:16:50;;;;;;;2.13;1.52;;;21.40;56.70;;;;;;5054716;28;20512;-62
2022/06/07 03:19:16;;;;;;;2.33;2.08;;;21.40;56.60;;;;;;5056277;28;20338;-64
2022/06/07 03:21:41;;;;;;;1.63;1.52;;;21.40;56.60;;;;;;5056300;28;20075;-65
2022/06/07 03:24:08;;;;;;;2.17;1.90;;;21.40;56.60;;;;;;5058747;28;20538;-64
2022/06/07 03:26:34;;;;;;;2.17;1.90;;;21.40;56.60;;;;;;5054210;28;20036;-64
2022/06/07 03:28:59;;;;;;;1.90;1.80;;;21.40;56.60;;;;;;5055931;28;20037;-65
2022/06/07 03:31:25;;;;;;;1.73;1.63;;;21.40;56.60;;;;;;5057051;28;20153;-64
2022/06/07 03:33:52;;;;;;;2.17;1.70;;;21.40;56.60;;;;;;5055533;28;20103;-64
2022/06/07 03:36:22;;;;;;;1.77;1.67;;;21.40;56.60;;;;;;5057193;28;20362;-64
2022/06/07 03:38:48;;;;;;;2.10;1.60;;;21.40;56.60;;;;;;5055341;28;20071;-65
2022/06/07 03:41:20;;;;;;;2.35;1.98;;;21.40;56.60;;;;;;5055724;28;20287;-65
2022/06/07 03:43:46;;;;;;;1.80;1.70;;;21.40;56.60;;;;;;5055741;28;20058;-65
2022/06/07 03:46:14;;;;;;;2.05;1.60;;;21.40;56.60;;;;;;5053907;28;20040;-65
2022/06/07 03:48:42;;;;;;;1.52;1.42;;;21.40;56.70;;;;;;5056617;28;20112;-63
2022/06/07 03:51:09;;;;;;;1.70;1.60;;;21.40;56.60;;;;;;5055641;28;20447;-64
2022/06/07 03:53:35;;;;;;;1.58;1.48;;;21.40;56.60;;;;;;5056085;28;20032;-64
2022/06/07 03:56:02;;;;;;;1.75;1.63;;;21.40;56.70;;;;;;5056168;28;20336;-64
2022/06/07 03:58:27;;;;;;;2.08;1.98;;;21.40;56.60;;;;;;5056371;28;20125;-64
2022/06/07 04:00:57;;;;;;;2.25;1.73;;;21.40;56.60;;;;;;5052664;28;20078;-64
2022/06/07 04:03:23;;;;;;;2.05;1.90;;;21.40;56.70;;;;;;5054608;28;20141;-64
2022/06/07 04:05:49;;;;;;;2.38;1.80;;;21.40;56.60;;;;;;5053125;28;20146;-64
2022/06/07 04:08:15;;;;;;;2.30;2.10;;;21.40;56.60;;;;;;5055403;28;20037;-62
2022/06/07 04:10:45;;;;;;;2.00;1.85;;;21.40;56.60;;;;;;5053778;28;20385;-64
2022/06/07 04:13:12;;;;;;;2.30;2.00;;;21.40;56.60;;;;;;5056823;28;20091;-65
2022/06/07 04:15:38;;;;;;;2.08;1.88;;;21.40;56.60;;;;;;5052627;28;20498;-64
2022/06/07 04:18:03;;;;;;;1.90;1.80;;;21.40;56.60;;;;;;5054381;28;20146;-64
2022/06/07 04:20:29;;;;;;;2.10;1.90;;;21.40;56.50;;;;;;5053603;28;20052;-65
2022/06/07 04:22:54;;;;;;;2.20;2.00;;;21.40;56.50;;;;;;5054606;28;20083;-63
2022/06/07 04:25:20;;;;;;;1.85;1.75;;;21.40;56.50;;;;;;5054124;28;20033;-63
2022/06/07 04:27:46;;;;;;;3.38;2.17;;;21.40;56.50;;;;;;5054550;28;20422;-64
2022/06/07 04:30:12;;;;;;;3.28;2.10;;;21.40;56.50;;;;;;5053764;28;20465;-63
2022/06/07 04:32:39;;;;;;;2.10;2.00;;;21.40;56.50;;;;;;5054793;28;20102;-65
2022/06/07 04:35:06;;;;;;;2.05;1.95;;;21.40;56.60;;;;;;5054010;28;20055;-66
2022/06/07 04:37:31;;;;;;;2.58;2.38;;;21.40;56.60;;;;;;5056321;28;20210;-64
2022/06/07 04:39:57;;;;;;;3.10;2.45;;;21.40;56.60;;;;;;5055673;28;20158;-64
2022/06/07 04:42:22;;;;;;;3.72;2.53;;;21.40;56.60;;;;;;5051675;28;20048;-65
2022/06/07 04:44:51;;;;;;;2.47;2.15;;;21.40;56.60;;;;;;5034800;28;20049;-65
2022/06/07 04:47:17;;;;;;;3.05;2.72;;;21.40;56.60;;;;;;5052692;28;20044;-67
2022/06/07 04:49:43;;;;;;;2.95;2.65;;;21.40;56.60;;;;;;5054679;28;20037;-67
2022/06/07 04:52:08;;;;;;;2.50;2.30;;;21.40;56.60;;;;;;5051214;28;20404;-63
2022/06/07 04:54:34;;;;;;;3.22;2.28;;;21.40;56.60;;;;;;5052500;28;20559;-64
2022/06/07 04:56:59;;;;;;;2.20;2.00;;;21.30;56.20;;;;;;5056162;28;20041;-64
2022/06/07 04:59:25;;;;;;;2.13;1.90;;;21.30;56.00;;;;;;5054195;28;20127;-64
2022/06/07 05:01:51;;;;;;;2.47;2.22;;;21.30;55.90;;;;;;5052663;28;20037;-64
2022/06/07 05:04:16;;;;;;;2.38;2.17;;;21.30;55.80;;;;;;5052594;28;20039;-63
2022/06/07 05:06:43;;;;;;;3.88;1.92;;;21.30;55.80;;;;;;5050020;28;20041;-63
2022/06/07 05:09:17;;;;;;;5.30;2.03;;;21.30;55.80;;;;;;5055669;28;20033;-64
2022/06/07 05:11:46;;;;;;;2.60;2.40;;;21.30;55.80;;;;;;5051281;28;20075;-63
2022/06/07 05:14:11;;;;;;;2.55;2.35;;;21.30;55.80;;;;;;5054720;28;20473;-64
2022/06/07 05:16:39;;;;;;;3.08;2.58;;;21.30;55.80;;;;;;5051410;28;20055;-64
2022/06/07 05:19:05;;;;;;;2.58;2.35;;;21.30;55.80;;;;;;5054447;28;20501;-64
2022/06/07 05:21:30;;;;;;;3.63;2.30;;;21.20;55.70;;;;;;5034253;28;20040;-63
2022/06/07 05:23:56;;;;;;;2.83;2.47;;;21.20;55.80;;;;;;5053698;28;20029;-64
2022/06/07 05:26:52;;;;;;;2.85;2.65;;;21.20;55.90;;;;;;5053103;28;20198;-64
2022/06/07 05:29:28;;;;;;;3.00;2.70;;;21.20;56.00;;;;;;5018759;28;20056;-63
2022/06/07 05:31:55;;;;;;;3.60;2.78;;;21.20;56.10;;;;;;5051925;28;20102;-63
2022/06/07 05:34:21;;;;;;;3.60;2.83;;;21.20;56.10;;;;;;5053481;28;20300;-62
2022/06/07 05:36:46;;;;;;;2.95;2.65;;;21.20;56.20;;;;;;5052651;28;20046;-63
2022/06/07 05:39:29;;;;;;;3.40;3.00;;;21.30;56.20;;;;;;5052315;28;20037;-63
2022/06/07 05:41:55;;;;;;;2.95;2.58;;;21.30;57.00;;;;;;5051060;28;20037;-64
2022/06/07 05:44:23;;;;;;;2.75;2.55;;;21.30;56.30;;;;;;5051764;28;20041;-64
2022/06/07 05:46:50;;;;;;;3.13;2.75;;;21.30;56.30;;;;;;5052480;28;20523;-63
2022/06/07 05:49:16;;;;;;;3.60;3.30;;;21.30;56.30;;;;;;5055451;28;20071;-63
2022/06/07 05:51:42;;;;;;;4.75;3.72;;;21.30;56.20;;;;;;5052783;28;20429;-63
2022/06/07 05:54:10;;;;;;;3.97;3.67;;;21.30;56.00;;;;;;5054901;28;20072;-63
2022/06/07 05:56:36;;;;;;;6.30;5.20;;;21.30;55.80;;;;;;5052486;28;20037;-65
2022/06/07 05:59:01;;;;;;;6.13;4.00;;;21.30;55.50;;;;;;5053326;28;20110;-63
2022/06/07 06:01:27;;;;;;;3.72;3.25;;;21.30;55.70;;;;;;5054228;28;20037;-64
2022/06/07 06:03:56;;;;;;;4.38;3.97;;;21.30;55.90;;;;;;5051968;28;20118;-64
2022/06/07 06:06:22;;;;;;;3.92;3.53;;;21.30;55.90;;;;;;5053162;28;20801;-64
2022/06/07 06:11:32;;;;;;;7.57;3.70;;;21.30;56.00;;;;;;5051778;28;20132;-64
2022/06/07 06:13:58;;;;;;;5.18;3.40;;;21.20;56.00;;;;;;5054431;28;20119;-63
2022/06/07 06:16:24;;;;;;;3.60;3.30;;;21.30;56.10;;;;;;5051733;28;20028;-64
2022/06/07 06:18:53;;;;;;;3.92;3.53;;;21.20;56.00;;;;;;5051529;28;20049;-64
2022/06/07 06:21:21;;;;;;;4.38;3.70;;;21.30;56.00;;;;;;5053030;28;20036;-63
2022/06/07 06:23:46;;;;;;;5.63;3.55;;;21.30;56.10;;;;;;5055753;28;20040;-64
2022/06/07 06:26:14;;;;;;;3.95;3.47;;;21.20;56.00;;;;;;5036689;28;20044;-63
2022/06/07 06:28:41;;;;;;;3.80;3.50;;;21.20;56.00;;;;;;5056154;28;20487;-64
2022/06/07 06:31:09;;;;;;;4.10;3.33;;;21.20;56.00;;;;;;5058917;28;20043;-64
2022/06/07 06:33:37;;;;;;;3.72;3.33;;;21.20;56.00;;;;;;5057628;28;20053;-64
2022/06/07 06:36:04;;;;;;;3.92;3.53;;;21.20;56.10;;;;;;5055045;28;20040;-64
2022/06/07 06:38:31;;;;;;;4.68;3.70;;;21.20;56.10;;;;;;5054915;28;20080;-63
2022/06/07 06:40:58;;;;;;;4.13;3.45;;;21.30;56.10;;;;;;5034966;28;20052;-63
2022/06/07 06:43:23;;;;;;;5.72;3.67;;;21.30;56.20;;;;;;5053260;28;20908;-63
2022/06/07 06:45:49;;;;;;;4.78;3.80;;;21.30;56.20;;;;;;5056143;28;20042;-64
2022/06/07 06:48:15;;;;;;;4.30;3.90;;;21.30;56.20;;;;;;5056335;28;20369;-63
2022/06/07 06:50:41;;;;;;;4.72;3.63;;;21.30;56.20;;;;;;5053593;28;20039;-63
2022/06/07 06:53:07;;;;;;;4.25;3.80;;;21.20;56.10;;;;;;5054516;28;20664;-64
2022/06/07 06:55:34;;;;;;;5.50;3.92;;;21.30;56.20;;;;;;5053870;28;20044;-62
2022/06/07 06:57:59;;;;;;;4.40;4.00;;;21.20;56.10;;;;;;5054482;28;20064;-63
2022/06/07 07:00:26;;;;;;;6.80;4.35;;;21.20;56.20;;;;;;5055951;28;20033;-65
2022/06/07 07:02:53;;;;;;;10.18;7.97;;;21.20;55.90;;;;;;5055511;28;20102;-64
2022/06/07 07:05:20;;;;;;;20.75;12.02;;;21.20;55.80;;;;;;5039182;28;20055;-65
2022/06/07 07:07:46;;;;;;;19.85;11.63;;;21.20;55.40;;;;;;5037664;28;20139;-64
2022/06/07 07:10:12;;;;;;;18.25;11.48;;;21.20;55.50;;;;;;5054394;28;20067;-64
2022/06/07 07:12:38;;;;;;;21.40;9.95;;;21.20;55.40;;;;;;5053076;28;20517;-65
2022/06/07 07:15:07;;;;;;;25.45;12.70;;;21.20;55.20;;;;;;5053276;28;20151;-63
2022/06/07 07:17:33;;;;;;;15.50;8.50;;;21.20;55.60;;;;;;5054938;28;20132;-64
2022/06/07 07:19:58;;;;;;;18.83;9.68;;;21.20;55.30;;;;;;5055461;28;20048;-63
2022/06/07 07:22:24;;;;;;;18.85;9.15;;;21.20;55.10;;;;;;5053328;28;20033;-64
2022/06/07 07:24:51;;;;;;;16.42;8.23;;;21.20;55.20;;;;;;5051654;28;20707;-64
2022/06/07 07:27:19;;;;;;;17.33;9.30;;;21.10;55.00;;;;;;5054187;28;20032;-65
2022/06/07 07:29:46;;;;;;;15.40;8.35;;;21.20;55.30;;;;;;5055181;28;20040;-64
2022/06/07 07:32:12;;;;;;;17.60;7.57;;;21.20;55.40;;;;;;5054456;28;20072;-62
2022/06/07 07:34:37;;;;;;;15.68;7.60;;;21.20;55.40;;;;;;5051821;28;20087;-65
2022/06/07 07:37:03;;;;;;;11.63;6.97;;;21.20;55.30;;;;;;5053317;28;20729;-65
2022/06/07 07:39:31;;;;;;;13.23;6.80;;;21.10;55.10;;;;;;5054053;28;20460;-65
2022/06/07 07:41:56;;;;;;;11.75;6.63;;;21.20;55.00;;;;;;5053835;28;20893;-64
2022/06/07 07:44:23;;;;;;;10.98;6.00;;;21.10;55.10;;;;;;5055409;28;20037;-65
2022/06/07 07:46:51;;;;;;;7.05;5.45;;;21.10;55.10;;;;;;5054962;28;20048;-64
2022/06/07 07:49:19;;;;;;;13.90;6.00;;;21.10;55.10;;;;;;5053069;28;20099;-63
2022/06/07 07:51:47;;;;;;;7.57;5.38;;;21.20;55.30;;;;;;5054729;28;20464;-65
2022/06/07 07:54:16;;;;;;;9.43;5.68;;;21.20;55.20;;;;;;5052813;28;20039;-65
2022/06/07 07:56:42;;;;;;;6.25;4.90;;;21.20;55.10;;;;;;5052632;28;20102;-64
2022/06/07 07:59:10;;;;;;;8.07;4.90;;;21.20;55.30;;;;;;5048089;28;20678;-64
2022/06/07 08:01:36;;;;;;;8.80;5.03;;;21.20;55.20;;;;;;5051439;28;20086;-64
2022/06/07 08:04:03;;;;;;;10.20;5.35;;;21.20;55.40;;;;;;5053045;28;20073;-65
2022/06/07 08:06:31;;;;;;;8.70;4.82;;;21.20;55.50;;;;;;5051969;28;20068;-63
2022/06/07 08:08:59;;;;;;;7.80;4.68;;;21.20;55.50;;;;;;5051325;28;20437;-65
2022/06/07 08:11:29;;;;;;;6.22;4.90;;;21.20;55.30;;;;;;5054814;28;20127;-65
2022/06/07 08:13:55;;;;;;;8.45;5.55;;;21.20;55.20;;;;;;5050982;28;20143;-65
2022/06/07 08:16:21;;;;;;;6.90;4.60;;;21.30;55.40;;;;;;5052000;28;21082;-63
2022/06/07 08:18:47;;;;;;;8.95;5.13;;;21.20;55.50;;;;;;5053810;28;20048;-62
2022/06/07 08:21:17;;;;;;;6.07;5.32;;;21.30;55.40;;;;;;5051410;28;20057;-64
2022/06/07 08:23:42;;;;;;;5.50;4.60;;;21.20;55.20;;;;;;5050102;28;20051;-64
2022/06/07 08:26:08;;;;;;;5.13;4.10;;;21.30;55.30;;;;;;5051165;28;20695;-64
2022/06/07 08:28:35;;;;;;;6.65;4.65;;;21.20;55.10;;;;;;5053654;28;20033;-63
2022/06/07 08:31:02;;;;;;;8.38;5.05;;;21.20;55.30;;;;;;5053010;28;20056;-63
2022/06/07 08:39:04;;;;;;;5.85;5.05;;;21.30;55.10;;;;;;5055182;28;20407;-64
2022/06/07 08:41:34;;;;;;;7.85;5.20;;;21.20;55.20;;;;;;5050568;28;20493;-63
2022/06/07 08:44:08;;;;;;;7.45;4.47;;;21.20;54.90;;;;;;5053877;28;20039;-63
2022/06/07 08:46:36;;;;;;;5.65;3.95;;;21.20;55.00;;;;;;5052295;28;20048;-65
2022/06/07 08:49:03;;;;;;;4.93;4.50;;;21.20;55.10;;;;;;5051408;28;20044;-64
2022/06/07 08:51:35;;;;;;;4.97;4.45;;;21.20;55.20;;;;;;5051986;28;20041;-62
2022/06/07 08:54:11;;;;;;;5.32;4.38;;;21.20;55.30;;;;;;5034061;28;20049;-63
2022/06/07 08:56:36;;;;;;;4.57;4.00;;;21.20;55.60;;;;;;5052715;28;20037;-64
2022/06/07 08:59:12;;;;;;;5.10;3.97;;;21.20;55.70;;;;;;5052963;28;20059;-64
2022/06/07 09:01:59;;;;;;;4.22;3.83;;;21.20;55.50;;;;;;5049176;28;20040;-63
2022/06/07 09:04:30;;;;;;;6.57;4.60;;;21.20;55.60;;;;;;5046822;28;20639;-62
2022/06/07 09:07:03;;;;;;;6.07;4.63;;;21.20;55.80;;;;;;5048835;28;20671;-64
2022/06/07 09:12:24;;;;;;;5.05;4.30;;;21.20;55.60;;;;;;5053648;28;20106;-63
2022/06/07 09:14:59;;;;;;;6.00;4.10;;;21.20;55.80;;;;;;5041406;28;20045;-63
2022/06/07 09:17:48;;;;;;;7.03;4.55;;;21.20;55.60;;;;;;5051747;28;20500;-62
2022/06/07 09:20:23;;;;;;;4.43;4.03;;;21.20;55.80;;;;;;5056295;28;20052;-63
2022/06/07 09:23:10;;;;;;;4.00;3.60;;;21.20;55.80;;;;;;5055415;28;20043;-64
2022/06/07 09:25:50;;;;;;;5.25;3.88;;;21.20;55.80;;;;;;5056052;28;20060;-64
2022/06/07 09:28:27;;;;;;;5.97;4.00;;;21.20;56.10;;;;;;5054415;28;20064;-62
2022/06/07 09:31:13;;;;;;;5.60;3.45;;;21.20;56.20;;;;;;5054770;28;20051;-64
2022/06/07 09:33:57;;;;;;;5.63;3.70;;;21.20;56.00;;;;;;5052018;28;20066;-65
2022/06/07 09:36:37;;;;;;;4.63;3.75;;;21.20;56.10;;;;;;5051200;28;20102;-64
2022/06/07 09:39:18;;;;;;;5.63;3.22;;;21.20;56.00;;;;;;5050473;28;20041;-64
2022/06/07 09:41:47;;;;;;;6.70;3.72;;;21.20;56.10;;;;;;5056441;28;20156;-64
2022/06/07 09:44:38;;;;;;;6.07;3.92;;;21.20;56.20;;;;;;5056022;28;20045;-65
2022/06/07 09:47:30;;;;;;;4.32;3.45;;;21.20;55.90;;;;;;5054138;28;20479;-68
2022/06/07 09:49:56;;;;;;;5.20;3.80;;;21.20;55.50;;;;;;5050249;28;20132;-67
2022/06/07 09:52:41;;;;;;;6.90;4.30;;;21.20;55.40;;;;;;5053839;28;20093;-66
2022/06/07 09:55:46;;;;;;;6.90;3.75;;;21.20;54.50;;;;;;5056366;28;20465;-67
2022/06/07 09:58:24;;;;;;;6.03;4.18;;;21.20;54.20;;;;;;5046158;28;20117;-66
2022/06/07 10:01:06;;;;;;;10.27;4.07;;;21.10;54.20;;;;;;5053348;28;20040;-67
2022/06/07 10:03:49;;;;;;;4.10;3.70;;;21.10;54.10;;;;;;5054944;28;20040;-63
2022/06/07 10:06:36;;;;;;;6.35;4.10;;;21.10;54.00;;;;;;5052754;28;20044;-65
2022/06/07 10:09:22;;;;;;;7.25;3.80;;;21.10;54.00;;;;;;5052930;28;20155;-64
2022/06/07 10:12:14;;;;;;;6.47;3.83;;;21.10;53.90;;;;;;5040830;28;20051;-63
2022/06/07 10:15:02;;;;;;;4.25;3.85;;;21.10;53.90;;;;;;5049576;28;20063;-64
2022/06/07 10:17:40;;;;;;;4.60;3.60;;;21.10;54.00;;;;;;5052523;28;20649;-64
2022/06/07 10:20:45;;;;;;;4.88;3.83;;;21.10;53.90;;;;;;5051936;28;20123;-64
2022/06/07 10:23:48;;;;;;;4.82;4.10;;;21.10;53.90;;;;;;5016632;28;20055;-64
2022/06/07 10:26:32;;;;;;;7.55;4.10;;;21.10;53.80;;;;;;5050151;28;20141;-63
2022/06/07 10:29:25;;;;;;;5.78;4.10;;;21.10;53.80;;;;;;5050985;28;20068;-64
2022/06/07 10:32:21;;;;;;;7.75;4.10;;;21.10;54.20;;;;;;5046083;28;20412;-63
2022/06/07 10:35:05;;;;;;;6.43;3.90;;;21.10;54.60;;;;;;5051253;28;20044;-64
2022/06/07 10:37:49;;;;;;;5.18;3.20;;;21.10;54.60;;;;;;5051828;28;20383;-62
2022/06/07 10:40:35;;;;;;;6.63;3.75;;;21.10;54.50;;;;;;5050779;28;20039;-65
2022/06/07 10:43:15;;;;;;;4.28;3.67;;;21.10;54.60;;;;;;5053442;28;20106;-64
2022/06/07 10:45:43;;;;;;;6.93;4.00;;;21.10;54.70;;;;;;5052193;28;20132;-63
2022/06/07 10:48:23;;;;;;;4.20;3.65;;;21.10;54.60;;;;;;5051605;28;20425;-65
2022/06/07 10:50:54;;;;;;;4.95;3.78;;;21.10;54.80;;;;;;5049609;28;20917;-62
2022/06/07 10:53:38;;;;;;;6.15;3.80;;;21.10;55.00;;;;;;5049629;28;20040;-64
2022/06/07 10:56:15;;;;;;;6.63;3.88;;;21.20;55.20;;;;;;5049837;28;20041;-63
2022/06/07 10:58:44;;;;;;;6.18;3.47;;;21.20;55.20;;;;;;5054476;28;20037;-64
2022/06/07 11:01:27;;;;;;;4.18;3.38;;;21.20;55.20;;;;;;5052715;28;20048;-64
2022/06/07 11:10:29;;;;;;;3.55;2.92;;;21.20;55.10;;;;;;5052813;28;20072;-63
2022/06/07 11:13:09;;;;;;;5.00;3.65;;;21.20;55.20;;;;;;5055198;28;20071;-63
2022/06/07 11:15:49;;;;;;;6.95;3.63;;;21.20;55.00;;;;;;5054696;28;20095;-64
2022/06/07 11:18:24;;;;;;;3.40;2.90;;;21.20;55.00;;;;;;5057329;28;20040;-64
2022/06/07 11:21:02;;;;;;;3.88;3.45;;;21.20;55.10;;;;;;5057299;28;20159;-64
2022/06/07 11:23:31;;;;;;;4.82;3.78;;;21.20;55.20;;;;;;5041050;28;20043;-64
2022/06/07 11:26:04;;;;;;;4.68;3.20;;;21.20;55.30;;;;;;5057049;28;20045;-64
2022/06/07 11:28:39;;;;;;;3.67;3.17;;;21.20;55.30;;;;;;5056286;28;20056;-65
2022/06/07 11:31:23;;;;;;;5.22;3.28;;;21.20;55.30;;;;;;5057080;28;20041;-65
2022/06/07 11:33:52;;;;;;;3.63;3.13;;;21.20;55.60;;;;;;5057505;28;20110;-64
2022/06/07 11:36:22;;;;;;;4.15;3.22;;;21.20;55.60;;;;;;5056871;28;20049;-64
2022/06/07 11:38:56;;;;;;;5.78;3.67;;;21.20;55.70;;;;;;5056908;28;20138;-64
2022/06/07 11:41:37;;;;;;;4.53;3.20;;;21.20;55.70;;;;;;5057980;28;20080;-64
2022/06/07 11:44:08;;;;;;;5.18;3.38;;;21.20;55.80;;;;;;5055196;28;20514;-65
2022/06/07 11:46:33;;;;;;;9.55;3.30;;;21.20;55.80;;;;;;5051346;28;20056;-62
2022/06/07 11:49:20;;;;;;;5.78;3.17;;;21.20;55.80;;;;;;5055141;28;20887;-66
2022/06/07 11:52:02;;;;;;;3.72;3.20;;;21.30;55.80;;;;;;5054743;28;21561;-63
2022/06/07 11:54:46;;;;;;;5.57;3.53;;;21.20;55.80;;;;;;5054281;28;20048;-64
2022/06/07 11:57:32;;;;;;;5.50;3.33;;;21.30;55.90;;;;;;5055880;28;20050;-65
2022/06/07 12:00:18;;;;;;;5.25;3.05;;;21.30;55.90;;;;;;5056925;28;20102;-65
2022/06/07 12:02:56;;;;;;;4.45;3.40;;;21.20;55.80;;;;;;5051399;28;20043;-65
2022/06/07 12:05:52;;;;;;;4.53;3.45;;;21.30;55.90;;;;;;5054907;28;20144;-64
2022/06/07 12:08:34;;;;;;;4.40;3.50;;;21.30;55.90;;;;;;5053660;28;20093;-63
2022/06/07 12:11:03;;;;;;;4.13;3.13;;;21.30;56.00;;;;;;5054358;28;20035;-65
2022/06/07 12:13:52;;;;;;;4.32;3.10;;;21.30;56.00;;;;;;5053437;28;20033;-62
2022/06/07 12:16:21;;;;;;;3.85;3.38;;;21.30;56.00;;;;;;5053369;28;20425;-64
2022/06/07 12:18:55;;;;;;;4.85;2.83;;;21.30;56.00;;;;;;5054814;28;20040;-64
2022/06/07 12:21:21;;;;;;;6.30;3.42;;;21.30;56.00;;;;;;5052487;28;20051;-65
2022/06/07 12:23:59;;;;;;;5.53;3.08;;;21.30;56.10;;;;;;5058050;28;20048;-64
2022/06/07 12:26:30;;;;;;;6.18;3.60;;;21.30;56.20;;;;;;5053682;28;20044;-65
2022/06/07 12:29:02;;;;;;;4.80;2.85;;;21.30;56.10;;;;;;5053946;28;20170;-64
2022/06/07 12:31:37;;;;;;;4.78;3.13;;;21.30;56.10;;;;;;5055283;28;20148;-63
2022/06/07 12:34:16;;;;;;;3.63;3.13;;;21.30;56.10;;;;;;5054807;28;20067;-63
2022/06/07 12:36:42;;;;;;;4.80;2.90;;;21.30;56.00;;;;;;5054017;28;20056;-63
2022/06/07 12:39:15;;;;;;;4.45;2.92;;;21.30;56.00;;;;;;5055480;28;20096;-63
2022/06/07 12:41:49;;;;;;;4.22;3.08;;;21.30;56.10;;;;;;5053036;28;20151;-64
2022/06/07 12:44:31;;;;;;;4.15;3.08;;;21.30;56.10;;;;;;5052410;28;20037;-63
2022/06/07 12:46:59;;;;;;;3.95;3.42;;;21.30;56.30;;;;;;5055401;28;20037;-64
2022/06/07 12:49:28;;;;;;;4.38;3.03;;;21.30;56.50;;;;;;5054289;28;20815;-63
2022/06/07 12:52:35;;;;;;;3.10;2.90;;;21.30;56.50;;;;;;5051405;28;20055;-64
2022/06/07 12:55:13;;;;;;;4.10;2.97;;;21.30;56.60;;;;;;5054609;28;20028;-64
2022/06/07 12:58:00;;;;;;;4.22;2.97;;;21.30;56.70;;;;;;5054756;28;20456;-64
2022/06/07 13:00:42;;;;;;;3.85;3.17;;;21.30;56.70;;;;;;5054344;28;20119;-64
2022/06/07 13:03:20;;;;;;;4.50;3.17;;;21.30;56.80;;;;;;5056011;28;20036;-64
2022/06/07 13:05:50;;;;;;;2.97;2.70;;;21.30;56.90;;;;;;5050711;28;20182;-62
2022/06/07 13:08:23;;;;;;;3.70;3.22;;;21.30;57.00;;;;;;5053145;28;20119;-63
2022/06/07 13:10:49;;;;;;;5.70;3.08;;;21.40;57.10;;;;;;5054329;28;20079;-64
2022/06/07 13:13:29;;;;;;;4.53;3.30;;;21.40;57.20;;;;;;5050606;28;20036;-64
2022/06/07 13:16:00;;;;;;;3.13;2.88;;;21.40;57.30;;;;;;5053253;28;20081;-64
2022/06/07 13:18:36;;;;;;;4.68;2.78;;;21.40;57.30;;;;;;5050662;28;20043;-64
2022/06/07 13:21:43;;;;;;;13.63;3.40;;;21.40;57.30;;;;;;5052970;28;20063;-64
2022/06/07 13:24:20;;;;;;;5.32;3.42;;;21.40;57.40;;;;;;5011850;28;20052;-64
2022/06/07 13:26:47;;;;;;;4.88;3.55;;;21.40;57.50;;;;;;5052885;28;20098;-63
2022/06/07 13:29:13;;;;;;;5.95;3.33;;;21.40;58.00;;;;;;5056156;28;20040;-63